createdAt,value
2019-06-10T00:02:30.981Z,99764.25
2019-06-10T00:05:21.482Z,99764.13
2019-06-10T00:08:11.904Z,99758.19
2019-06-10T00:11:03.370Z,99775.27
2019-06-10T00:13:50.895Z,99772.18
2019-06-10T00:16:41.631Z,99778.77
2019-06-10T00:19:31.728Z,99777.07
2019-06-10T00:22:21.558Z,99787.80
2019-06-10T00:25:11.973Z,99773.17
2019-06-10T00:28:03.027Z,99790.21
2019-06-10T00:30:51.587Z,99771.89
2019-06-10T00:33:41.505Z,99781.02
2019-06-10T00:36:31.071Z,99779.87
2019-06-10T00:39:22.225Z,99772.63
2019-06-10T00:42:14.927Z,99770.97
2019-06-10T00:45:05.347Z,99767.46
2019-06-10T00:48:08.540Z,99762.41
2019-06-10T00:50:42.636Z,99758.08
2019-06-10T00:53:31.826Z,99748.44
2019-06-10T00:56:21.512Z,99749.25
2019-06-10T00:59:14.829Z,99751.84
2019-06-10T01:02:01.740Z,99756.47
2019-06-10T01:04:52.433Z,99761.09
2019-06-10T01:07:42.942Z,99770.00
2019-06-10T01:10:31.737Z,99777.34
2019-06-10T01:13:21.492Z,99781.50
2019-06-10T01:16:12.559Z,99784.81
2019-06-10T01:19:01.510Z,99776.08
2019-06-10T01:21:51.324Z,99768.36
2019-06-10T01:24:40.920Z,99753.52
2019-06-10T01:27:31.505Z,99761.78
2019-06-10T01:30:26.462Z,99761.14
2019-06-10T01:33:12.862Z,99743.74
2019-06-10T01:36:01.245Z,99738.48
2019-06-10T01:38:51.407Z,99748.98
2019-06-10T01:41:41.312Z,99754.72
2019-06-10T01:44:31.042Z,99756.47
2019-06-10T01:47:21.601Z,99740.03
2019-06-10T01:50:12.513Z,99742.95
2019-06-10T01:53:02.010Z,99735.41
2019-06-10T01:55:51.976Z,99721.61
2019-06-10T01:58:40.745Z,99709.80
2019-06-10T02:01:41.183Z,99714.55
2019-06-10T02:04:32.076Z,99708.17
2019-06-10T02:07:22.768Z,99697.68
2019-06-10T02:10:13.734Z,99704.57
2019-06-10T02:13:01.387Z,99710.44
2019-06-10T02:15:51.361Z,99707.13
2019-06-10T02:18:42.258Z,99719.47
2019-06-10T02:21:31.214Z,99728.09
2019-06-10T02:24:22.026Z,99738.91
2019-06-10T02:27:12.835Z,99739.42
2019-06-10T02:30:01.789Z,99733.66
2019-06-10T02:32:52.431Z,99730.26
2019-06-10T02:35:48.659Z,99734.34
2019-06-10T02:38:38.645Z,99724.20
2019-06-10T02:41:31.297Z,99725.66
2019-06-10T02:44:17.256Z,99735.34
2019-06-10T02:47:04.500Z,99740.63
2019-06-10T02:50:02.073Z,99749.16
2019-06-10T02:52:44.797Z,99752.14
2019-06-10T02:55:35.173Z,99752.14
2019-06-10T02:58:32.499Z,99755.77
2019-06-10T03:01:16.723Z,99747.20
2019-06-10T03:04:04.980Z,99743.55
2019-06-10T03:06:54.670Z,99744.09
2019-06-10T03:09:43.911Z,99748.38
2019-06-10T03:12:33.377Z,99748.38
2019-06-10T03:15:24.727Z,99748.49
2019-06-10T03:18:13.358Z,99740.93
2019-06-10T03:21:02.883Z,99735.53
2019-06-10T03:23:53.097Z,99725.78
2019-06-10T03:26:42.852Z,99711.83
2019-06-10T03:29:32.758Z,99706.06
2019-06-10T03:32:29.574Z,99703.61
2019-06-10T03:35:13.472Z,99705.09
2019-06-10T03:38:04.537Z,99687.34
2019-06-10T03:40:54.326Z,99676.31
2019-06-10T03:43:43.139Z,99671.72
2019-06-10T03:46:33.050Z,99659.05
2019-06-10T03:49:23.911Z,99660.70
2019-06-10T03:52:12.974Z,99663.80
2019-06-10T03:55:03.025Z,99646.88
2019-06-10T03:57:52.862Z,99651.16
2019-06-10T04:00:42.994Z,99657.20
2019-06-10T04:03:33.823Z,99651.13
2019-06-10T04:06:24.658Z,99637.84
2019-06-10T04:09:13.584Z,99638.35
2019-06-10T04:12:03.048Z,99623.44
2019-06-10T04:14:52.264Z,99612.94
2019-06-10T04:17:42.782Z,99601.12
2019-06-10T04:20:33.195Z,99595.23
2019-06-10T04:23:23.973Z,99595.77
2019-06-10T04:26:12.758Z,99604.30
2019-06-10T04:29:02.434Z,99591.18
2019-06-10T04:31:52.401Z,99602.02
2019-06-10T04:34:43.333Z,99599.70
2019-06-10T04:37:32.516Z,99597.72
2019-06-10T04:40:23.530Z,99611.63
2019-06-10T04:43:12.419Z,99609.92
2019-06-10T04:46:02.327Z,99623.04
2019-06-10T04:48:53.192Z,99628.57
2019-06-10T04:51:43.475Z,99627.77
2019-06-10T04:54:33.452Z,99626.92
2019-06-10T04:57:23.819Z,99635.47
2019-06-10T05:00:14.828Z,99648.45
2019-06-10T05:03:03.558Z,99650.64
2019-06-10T05:05:52.759Z,99657.06
2019-06-10T05:08:42.716Z,99654.63
2019-06-10T05:11:33.078Z,99661.37
2019-06-10T05:14:25.019Z,99657.77
2019-06-10T05:17:13.049Z,99675.83
2019-06-10T05:20:02.517Z,99689.32
2019-06-10T05:22:52.822Z,99696.70
2019-06-10T05:25:42.745Z,99697.89
2019-06-10T05:28:34.253Z,99696.82
2019-06-10T05:31:26.698Z,99710.92
2019-06-10T05:34:13.349Z,99717.53
2019-06-10T05:37:02.793Z,99716.34
2019-06-10T05:39:52.643Z,99724.42
2019-06-10T05:42:42.699Z,99716.53
2019-06-10T05:45:34.859Z,99714.25
2019-06-10T05:48:23.929Z,99704.57
2019-06-10T05:51:12.945Z,99711.81
2019-06-10T05:54:02.335Z,99710.57
2019-06-10T05:56:52.184Z,99712.03
2019-06-10T05:59:43.271Z,99712.69
2019-06-10T06:02:35.056Z,99721.17
2019-06-10T06:05:22.300Z,99720.38
2019-06-10T06:08:12.575Z,99710.59
2019-06-10T06:11:03.192Z,99708.78
2019-06-10T06:13:52.434Z,99712.23
2019-06-10T06:16:43.288Z,99704.17
2019-06-10T06:19:35.480Z,99702.08
2019-06-10T06:22:23.116Z,99694.53
2019-06-10T06:25:15.703Z,99698.81
2019-06-10T06:28:05.255Z,99689.30
2019-06-10T06:30:54.685Z,99695.05
2019-06-10T06:33:43.749Z,99694.22
2019-06-10T06:36:35.387Z,99688.64
2019-06-10T06:39:24.379Z,99679.94
2019-06-10T06:42:13.684Z,99680.73
2019-06-10T06:45:03.193Z,99687.31
2019-06-10T06:47:52.699Z,99684.34
2019-06-10T06:50:59.393Z,99688.48
2019-06-10T06:53:42.618Z,99695.06
2019-06-10T06:56:23.125Z,99698.15
2019-06-10T06:59:13.397Z,99698.99
2019-06-10T07:02:02.739Z,99700.94
2019-06-10T07:04:52.578Z,99700.98
2019-06-10T07:07:43.385Z,99703.78
2019-06-10T07:10:35.465Z,99698.10
2019-06-10T07:13:23.837Z,99683.47
2019-06-10T07:16:13.221Z,99689.44
2019-06-10T07:19:02.712Z,99690.89
2019-06-10T07:22:08.594Z,99701.61
2019-06-10T07:24:47.320Z,99700.19
2019-06-10T07:27:35.829Z,99690.42
2019-06-10T07:30:23.627Z,99686.00
2019-06-10T07:33:12.947Z,99685.81
2019-06-10T07:36:03.162Z,99686.39
2019-06-10T07:38:53.906Z,99692.80
2019-06-10T07:41:47.503Z,99679.48
2019-06-10T07:44:34.587Z,99679.80
2019-06-10T07:47:24.139Z,99666.61
2019-06-10T07:50:13.619Z,99667.92
2019-06-10T07:53:03.446Z,99665.89
2019-06-10T07:55:53.548Z,99666.77
2019-06-10T07:58:47.455Z,99659.09
2019-06-10T08:01:34.393Z,99658.48
2019-06-10T08:04:23.955Z,99658.22
2019-06-10T08:07:12.870Z,99658.58
2019-06-10T08:10:02.886Z,99650.30
2019-06-10T08:12:52.525Z,99649.50
2019-06-10T08:15:44.279Z,99652.61
2019-06-10T08:18:39.694Z,99651.56
2019-06-10T08:21:23.331Z,99657.95
2019-06-10T08:24:12.745Z,99655.25
2019-06-10T08:27:02.793Z,99646.76
2019-06-10T08:30:13.733Z,99645.98
2019-06-10T08:32:46.835Z,99655.86
2019-06-10T08:35:44.019Z,99656.55
2019-06-10T08:38:24.436Z,99653.58
2019-06-10T08:41:13.433Z,99653.16
2019-06-10T08:44:02.670Z,99654.72
2019-06-10T08:46:52.444Z,99657.90
2019-06-10T08:49:45.869Z,99661.98
2019-06-10T08:52:49.496Z,99656.84
2019-06-10T08:55:23.024Z,99662.41
2019-06-10T08:58:12.870Z,99669.80
2019-06-10T09:01:02.457Z,99664.61
2019-06-10T09:03:53.705Z,99664.09
2019-06-10T09:06:47.189Z,99660.64
2019-06-10T09:09:33.057Z,99654.56
2019-06-10T09:12:32.904Z,99651.97
2019-06-10T09:15:13.891Z,99651.14
2019-06-10T09:18:02.784Z,99643.45
2019-06-10T09:20:55.738Z,99645.63
2019-06-10T09:23:47.128Z,99650.52
2019-06-10T09:26:33.896Z,99653.89
2019-06-10T09:29:24.734Z,99654.70
2019-06-10T09:32:13.865Z,99641.12
2019-06-10T09:35:03.588Z,99624.85
2019-06-10T09:37:55.637Z,99609.19
2019-06-10T09:40:59.821Z,99611.63
2019-06-10T09:43:45.371Z,99604.76
2019-06-10T09:46:33.084Z,99607.45
2019-06-10T09:49:23.725Z,99605.47
2019-06-10T09:52:13.496Z,99585.43
2019-06-10T09:55:03.314Z,99578.70
2019-06-10T09:57:59.615Z,99577.30
2019-06-10T10:00:49.403Z,99563.53
2019-06-10T10:03:36.247Z,99565.09
2019-06-10T10:06:26.095Z,99560.85
2019-06-10T10:09:14.987Z,99550.11
2019-06-10T10:12:03.921Z,99538.34
2019-06-10T10:14:56.199Z,99541.23
2019-06-10T10:17:47.467Z,99546.98
2019-06-10T10:20:34.694Z,99555.78
2019-06-10T10:23:23.656Z,99559.19
2019-06-10T10:26:14.202Z,99564.41
2019-06-10T10:29:03.758Z,99569.56
2019-06-10T10:31:54.091Z,99581.20
2019-06-10T10:34:47.042Z,99577.42
2019-06-10T10:37:34.430Z,99560.80
2019-06-10T10:40:23.998Z,99545.97
2019-06-10T10:43:25.398Z,99550.14
2019-06-10T10:46:05.524Z,99553.11
2019-06-10T10:48:56.476Z,99539.02
2019-06-10T10:51:46.946Z,99531.77
2019-06-10T10:54:37.679Z,99511.73
2019-06-10T10:57:27.015Z,99516.23
2019-06-10T11:00:17.323Z,99515.17
2019-06-10T11:03:06.222Z,99518.34
2019-06-10T11:06:00.697Z,99528.48
2019-06-10T11:08:48.012Z,99523.38
2019-06-10T11:11:36.533Z,99525.19
2019-06-10T11:14:25.427Z,99523.61
2019-06-10T11:17:14.676Z,99521.83
2019-06-10T11:20:04.484Z,99496.22
2019-06-10T11:22:54.380Z,99449.11
2019-06-10T11:25:44.248Z,99400.80
2019-06-10T11:28:33.152Z,99351.77
2019-06-10T11:31:22.750Z,99321.55
2019-06-10T11:34:11.627Z,99339.43
2019-06-10T11:37:02.310Z,99387.69
2019-06-10T11:39:52.313Z,99444.64
2019-06-10T11:42:43.555Z,99477.36
2019-06-10T11:45:32.885Z,99477.97
2019-06-10T11:48:23.823Z,99486.23
2019-06-10T11:51:13.336Z,99491.15
2019-06-10T11:54:03.443Z,99511.63
2019-06-10T11:56:56.456Z,99516.59
2019-06-10T11:59:44.266Z,99520.52
2019-06-10T12:02:33.353Z,99517.02
2019-06-10T12:05:23.539Z,99521.75
2019-06-10T12:08:12.989Z,99518.69
2019-06-10T12:11:02.739Z,99498.54
2019-06-10T12:13:57.818Z,99467.52
2019-06-10T12:19:34.093Z,99458.59
2019-06-10T12:22:23.021Z,99465.44
2019-06-10T12:25:24.121Z,99464.36
2019-06-10T12:27:26.795Z,99458.03
2019-06-10T12:29:58.558Z,99451.33
2019-06-10T12:32:30.324Z,99451.33
2019-06-10T12:35:05.012Z,99442.33
2019-06-10T12:37:34.552Z,99421.84
2019-06-10T12:40:06.061Z,99399.37
2019-06-10T12:42:37.709Z,99396.12
2019-06-10T12:45:12.771Z,99401.25
2019-06-10T12:47:43.549Z,99407.95
2019-06-10T12:50:15.066Z,99401.86
2019-06-10T12:52:47.511Z,99395.45
2019-06-10T12:55:39.227Z,99397.33
2019-06-10T12:58:05.912Z,99390.31
2019-06-10T13:00:46.796Z,99380.30
2019-06-10T13:03:17.911Z,99370.70
2019-06-10T13:05:48.875Z,99378.83
2019-06-10T13:08:23.250Z,99404.42
2019-06-10T13:10:53.282Z,99426.04
2019-06-10T13:13:24.421Z,99422.84
2019-06-10T13:15:56.318Z,99433.59
2019-06-10T13:18:27.385Z,99439.25
2019-06-10T13:21:01.963Z,99445.36
2019-06-10T13:23:34.432Z,99465.27
2019-06-10T13:26:10.145Z,99479.81
2019-06-10T13:28:35.892Z,99491.84
2019-06-10T13:31:09.630Z,99503.41
2019-06-10T13:33:39.070Z,99510.52
2019-06-10T13:36:10.087Z,99511.94
2019-06-10T13:38:42.778Z,99509.10
2019-06-10T13:41:13.695Z,99508.53
2019-06-10T13:43:44.517Z,99493.05
2019-06-10T13:46:15.538Z,99485.18
2019-06-10T13:48:46.524Z,99486.62
2019-06-10T13:51:17.742Z,99482.75
2019-06-10T13:53:48.952Z,99479.97
2019-06-10T13:56:39.730Z,99470.55
2019-06-10T13:58:52.604Z,99447.83
2019-06-10T14:01:23.646Z,99442.63
2019-06-10T14:03:54.380Z,99437.52
2019-06-10T14:06:37.717Z,99439.70
2019-06-10T14:08:57.905Z,99419.98
2019-06-10T14:11:30.171Z,99413.23
2019-06-10T14:14:02.005Z,99398.77
2019-06-10T14:16:33.258Z,99383.16
2019-06-10T14:19:07.513Z,99373.81
2019-06-10T14:21:37.310Z,99355.70
2019-06-10T14:24:08.321Z,99344.11
2019-06-10T14:26:44.705Z,99326.09
2019-06-10T14:29:15.790Z,99329.05
2019-06-10T14:31:47.793Z,99331.50
2019-06-10T14:34:18.639Z,99319.62
2019-06-10T14:36:52.514Z,99341.30
2019-06-10T14:39:24.621Z,99370.71
2019-06-10T14:41:59.229Z,99376.86
2019-06-10T14:44:28.342Z,99383.35
2019-06-10T14:46:59.387Z,99395.95
2019-06-10T14:49:32.860Z,99407.48
2019-06-10T14:52:02.950Z,99409.38
2019-06-10T14:54:34.083Z,99412.30
2019-06-10T14:57:05.258Z,99409.95
2019-06-10T14:59:36.370Z,99415.69
2019-06-10T15:02:07.824Z,99421.91
2019-06-10T15:04:38.572Z,99424.63
2019-06-10T15:07:11.077Z,99425.41
2019-06-10T15:09:43.159Z,99413.99
2019-06-10T15:12:15.569Z,99404.09
2019-06-10T15:14:46.512Z,99394.70
2019-06-10T15:17:18.797Z,99396.92
2019-06-10T15:19:49.641Z,99391.11
2019-06-10T15:22:23.581Z,99391.27
2019-06-10T15:24:57.751Z,99392.50
2019-06-10T15:27:42.827Z,99388.80
2019-06-10T15:30:26.166Z,99388.10
2019-06-10T15:33:03.395Z,99383.03
2019-06-10T15:35:37.656Z,99390.70
2019-06-10T15:38:16.582Z,99387.41
2019-06-10T15:40:48.616Z,99390.78
2019-06-10T15:43:28.811Z,99380.23
2019-06-10T15:46:06.205Z,99384.97
2019-06-10T15:48:43.000Z,99382.47
2019-06-10T15:51:32.987Z,99378.17
2019-06-10T15:54:02.685Z,99363.95
2019-06-10T15:56:49.896Z,99355.42
2019-06-10T15:59:25.945Z,99360.53
2019-06-10T16:02:06.168Z,99359.17
2019-06-10T16:04:43.239Z,99365.84
2019-06-10T16:07:20.946Z,99372.84
2019-06-10T16:09:55.609Z,99369.59
2019-06-10T16:12:32.919Z,99383.08
2019-06-10T16:15:05.543Z,99388.72
2019-06-10T16:17:38.948Z,99393.09
2019-06-10T16:20:27.120Z,99396.06
2019-06-10T16:23:02.716Z,99402.86
2019-06-10T16:25:42.716Z,99394.70
2019-06-10T16:28:22.882Z,99394.70
2019-06-10T16:30:53.780Z,99397.42
2019-06-10T16:33:27.689Z,99406.61
2019-06-10T16:35:58.194Z,99399.89
2019-06-10T16:38:29.144Z,99397.58
2019-06-10T16:41:00.113Z,99393.36
2019-06-10T16:43:33.220Z,99388.84
2019-06-10T16:46:03.526Z,99391.08
2019-06-10T16:48:34.195Z,99392.33
2019-06-10T16:51:05.006Z,99386.88
2019-06-10T16:53:36.096Z,99394.67
2019-06-10T16:56:07.135Z,99399.47
2019-06-10T16:58:38.189Z,99394.84
2019-06-10T17:01:09.172Z,99390.55
2019-06-10T17:03:42.326Z,99389.88
2019-06-10T17:06:13.235Z,99387.20
2019-06-10T17:08:43.991Z,99376.19
2019-06-10T17:11:15.055Z,99373.73
2019-06-10T17:13:46.085Z,99365.89
2019-06-10T17:16:17.065Z,99376.84
2019-06-10T17:18:49.082Z,99383.17
2019-06-10T17:21:24.219Z,99388.84
2019-06-10T17:23:52.758Z,99391.47
2019-06-10T17:26:32.554Z,99383.41
2019-06-10T17:28:56.692Z,99386.75
2019-06-10T17:31:30.528Z,99391.55
2019-06-10T17:34:02.557Z,99389.98
2019-06-10T17:36:35.086Z,99403.42
2019-06-10T17:39:06.882Z,99402.42
2019-06-10T17:41:37.710Z,99413.60
2019-06-10T17:44:08.668Z,99412.62
2019-06-10T17:46:39.637Z,99417.25
2019-06-10T17:49:12.905Z,99420.88
2019-06-10T17:51:43.390Z,99414.63
2019-06-10T17:54:14.461Z,99405.05
2019-06-10T17:56:45.391Z,99400.42
2019-06-10T17:59:33.141Z,99399.73
2019-06-10T18:02:03.228Z,99383.52
2019-06-10T18:04:34.645Z,99395.98
2019-06-10T18:07:05.472Z,99417.20
2019-06-10T18:09:37.154Z,99425.66
2019-06-10T18:12:07.845Z,99415.00
2019-06-10T18:14:38.897Z,99413.02
2019-06-10T18:17:10.061Z,99419.90
2019-06-10T18:19:43.154Z,99400.35
2019-06-10T18:22:13.238Z,99392.16
2019-06-10T18:24:44.223Z,99378.02
2019-06-10T18:27:15.208Z,99376.90
2019-06-10T18:29:45.938Z,99382.16
2019-06-10T18:32:16.909Z,99380.52
2019-06-10T18:34:48.137Z,99368.55
2019-06-10T18:37:19.109Z,99373.80
2019-06-10T18:39:52.139Z,99371.19
2019-06-10T18:42:23.547Z,99366.47
2019-06-10T18:44:54.674Z,99370.42
2019-06-10T18:47:25.422Z,99372.05
2019-06-10T18:49:56.651Z,99369.77
2019-06-10T18:52:28.149Z,99371.41
2019-06-10T18:54:58.954Z,99361.91
2019-06-10T18:57:30.642Z,99362.27
2019-06-10T19:00:10.703Z,99343.86
2019-06-10T19:02:36.500Z,99345.83
2019-06-10T19:05:08.208Z,99339.31
2019-06-10T19:07:40.621Z,99340.96
2019-06-10T19:10:12.107Z,99332.06
2019-06-10T19:12:43.384Z,99337.37
2019-06-10T19:15:14.421Z,99333.79
2019-06-10T19:17:45.171Z,99331.11
2019-06-10T19:20:17.461Z,99327.52
2019-06-10T19:22:48.442Z,99326.89
2019-06-10T19:25:19.605Z,99326.59
2019-06-10T19:27:52.993Z,99326.94
2019-06-10T19:30:24.233Z,99332.55
2019-06-10T19:32:55.230Z,99325.69
2019-06-10T19:35:26.573Z,99318.44
2019-06-10T19:37:57.628Z,99328.61
2019-06-10T19:40:28.674Z,99338.34
2019-06-10T19:42:59.416Z,99337.66
2019-06-10T19:45:32.179Z,99344.86
2019-06-10T19:48:03.578Z,99345.34
2019-06-10T19:50:36.393Z,99351.37
2019-06-10T19:53:08.479Z,99352.39
2019-06-10T19:55:39.274Z,99346.66
2019-06-10T19:58:10.596Z,99350.27
2019-06-10T20:00:50.410Z,99347.91
2019-06-10T20:03:15.576Z,99354.83
2019-06-10T20:05:47.047Z,99354.83
2019-06-10T20:08:18.037Z,99353.84
2019-06-10T20:10:48.763Z,99355.03
2019-06-10T20:13:19.506Z,99350.23
2019-06-10T20:15:52.335Z,99358.33
2019-06-10T20:18:22.916Z,99365.61
2019-06-10T20:20:54.173Z,99365.31
2019-06-10T20:23:24.892Z,99374.68
2019-06-10T20:25:55.620Z,99380.41
2019-06-10T20:28:26.609Z,99372.92
2019-06-10T20:30:57.340Z,99372.38
2019-06-10T20:33:36.339Z,99363.48
2019-06-10T20:36:07.036Z,99365.28
2019-06-10T20:38:39.951Z,99373.59
2019-06-10T20:41:12.682Z,99369.03
2019-06-10T20:43:44.322Z,99358.53
2019-06-10T20:46:15.901Z,99348.48
2019-06-10T20:48:49.364Z,99336.50
2019-06-10T20:51:19.147Z,99323.25
2019-06-10T20:53:50.361Z,99333.12
2019-06-10T20:56:23.243Z,99319.80
2019-06-10T20:58:54.345Z,99310.94
2019-06-10T21:01:26.301Z,99302.77
2019-06-10T21:03:57.485Z,99299.05
2019-06-10T21:06:28.377Z,99296.08
2019-06-10T21:08:59.733Z,99289.17
2019-06-10T21:11:32.213Z,99296.11
2019-06-10T21:14:03.361Z,99290.72
2019-06-10T21:16:34.305Z,99290.44
2019-06-10T21:19:05.233Z,99292.70
2019-06-10T21:21:36.037Z,99292.02
2019-06-10T21:24:06.781Z,99295.66
2019-06-10T21:26:37.996Z,99293.39
2019-06-10T21:29:09.075Z,99298.95
2019-06-10T21:31:41.727Z,99294.04
2019-06-10T21:34:12.733Z,99301.92
2019-06-10T21:36:45.230Z,99318.05
2019-06-10T21:39:16.206Z,99334.47
2019-06-10T21:41:48.244Z,99345.91
2019-06-10T21:44:18.990Z,99353.48
2019-06-10T21:46:50.336Z,99362.98
2019-06-10T21:49:23.630Z,99367.63
2019-06-10T21:51:57.296Z,99363.53
2019-06-10T21:54:28.083Z,99349.42
2019-06-10T21:56:59.791Z,99347.91
2019-06-10T21:59:32.132Z,99343.98
2019-06-10T22:02:03.203Z,99341.69
2019-06-10T22:04:34.181Z,99332.83
2019-06-10T22:07:04.985Z,99330.87
2019-06-10T22:09:35.820Z,99319.41
2019-06-10T22:12:07.044Z,99313.04
2019-06-10T22:14:37.807Z,99308.44
2019-06-10T22:17:08.551Z,99296.95
2019-06-10T22:19:39.537Z,99294.19
2019-06-10T22:22:12.832Z,99291.27
2019-06-10T22:24:43.169Z,99291.23
2019-06-10T22:27:13.902Z,99288.80
2019-06-10T22:29:45.069Z,99294.53
2019-06-10T22:32:15.760Z,99291.91
2019-06-10T22:34:47.550Z,99290.30
2019-06-10T22:37:18.207Z,99284.55
2019-06-10T22:39:50.012Z,99285.05
2019-06-10T22:42:22.353Z,99289.47
2019-06-10T22:44:56.343Z,99296.19
2019-06-10T22:47:25.711Z,99296.52
2019-06-10T22:49:58.467Z,99304.25
2019-06-10T22:52:32.012Z,99320.18
2019-06-10T22:55:03.527Z,99333.12
2019-06-10T22:57:36.210Z,99335.92
2019-06-10T23:00:08.953Z,99333.13
2019-06-10T23:02:40.649Z,99336.73
2019-06-10T23:05:13.246Z,99324.42
2019-06-10T23:07:44.555Z,99324.45
2019-06-10T23:10:15.718Z,99308.52
2019-06-10T23:12:46.704Z,99313.13
2019-06-10T23:15:18.309Z,99321.83
2019-06-10T23:17:50.862Z,99312.14
2019-06-10T23:20:22.221Z,99300.83
2019-06-10T23:22:56.076Z,99301.16
2019-06-10T23:25:25.663Z,99308.69
2019-06-10T23:27:57.911Z,99308.39
2019-06-10T23:30:29.647Z,99314.77
2019-06-10T23:33:00.854Z,99320.17
2019-06-10T23:35:32.324Z,99316.91
2019-06-10T23:38:05.155Z,99315.75
2019-06-10T23:40:35.839Z,99307.05
2019-06-10T23:43:06.821Z,99309.04
2019-06-10T23:45:37.841Z,99302.14
2019-06-10T23:48:08.592Z,99305.92
2019-06-10T23:50:39.837Z,99305.41
2019-06-10T23:53:13.154Z,99306.74
2019-06-10T23:55:43.797Z,99299.84
2019-06-10T23:58:14.786Z,99311.48
